createdAt,value
2022-10-24T00:02:24.271Z,12.89
2022-10-24T00:04:50.689Z,12.85
2022-10-24T00:07:17.048Z,12.80
2022-10-24T00:09:43.821Z,12.72
2022-10-24T00:12:10.242Z,12.67
2022-10-24T00:14:36.855Z,12.63
2022-10-24T00:17:03.852Z,12.57
2022-10-24T00:19:30.229Z,12.55
2022-10-24T00:21:56.556Z,12.53
2022-10-24T00:24:25.089Z,12.48
2022-10-24T00:26:51.746Z,12.43
2022-10-24T00:29:18.252Z,12.39
2022-10-24T00:31:44.990Z,12.38
2022-10-24T00:34:11.564Z,12.34
2022-10-24T00:36:38.139Z,12.33
2022-10-24T00:39:04.582Z,12.32
2022-10-24T00:41:34.929Z,12.31
2022-10-24T00:44:14.553Z,12.31
2022-10-24T00:46:42.083Z,12.27
2022-10-24T00:49:12.301Z,12.25
2022-10-24T00:51:38.840Z,12.24
2022-10-24T00:54:08.712Z,12.23
2022-10-24T00:56:37.541Z,12.23
2022-10-24T00:59:05.151Z,12.25
2022-10-24T01:01:31.875Z,12.25
2022-10-24T01:03:58.293Z,12.30
2022-10-24T01:06:27.418Z,12.35
2022-10-24T01:09:09.159Z,12.36
2022-10-24T01:11:41.661Z,12.35
2022-10-24T01:14:07.974Z,12.34
2022-10-24T01:16:41.973Z,12.35
2022-10-24T01:19:11.303Z,12.35
2022-10-24T01:21:42.144Z,12.35
2022-10-24T01:24:27.459Z,12.34
2022-10-24T01:27:03.236Z,12.34
2022-10-24T01:29:48.064Z,12.34
2022-10-24T01:32:14.429Z,12.35
2022-10-24T01:34:44.686Z,12.34
2022-10-24T01:37:18.044Z,12.34
2022-10-24T01:39:47.206Z,12.36
2022-10-24T01:42:14.957Z,12.35
2022-10-24T01:44:44.035Z,12.39
2022-10-24T01:47:18.524Z,12.36
2022-10-24T01:49:48.593Z,12.36
2022-10-24T01:52:16.168Z,12.36
2022-10-24T01:54:43.582Z,12.38
2022-10-24T01:57:11.209Z,12.39
2022-10-24T01:59:40.536Z,12.38
2022-10-24T02:02:13.298Z,12.36
2022-10-24T02:04:43.641Z,12.33
2022-10-24T02:07:12.035Z,12.32
2022-10-24T02:09:39.864Z,12.32
2022-10-24T02:12:08.810Z,12.30
2022-10-24T02:14:39.441Z,12.30
2022-10-24T02:17:06.070Z,12.26
2022-10-24T02:19:32.884Z,12.26
2022-10-24T02:22:07.258Z,12.24
2022-10-24T02:24:38.366Z,12.22
2022-10-24T02:27:08.055Z,12.21
2022-10-24T02:29:38.803Z,12.20
2022-10-24T02:32:07.499Z,12.18
2022-10-24T02:34:38.425Z,12.14
2022-10-24T02:37:05.998Z,12.17
2022-10-24T02:39:34.027Z,12.16
2022-10-24T02:42:01.876Z,12.14
2022-10-24T02:44:29.071Z,12.10
2022-10-24T02:46:57.112Z,12.08
2022-10-24T02:49:29.807Z,12.08
2022-10-24T02:51:56.529Z,12.09
2022-10-24T02:54:23.217Z,12.07
2022-10-24T02:56:52.981Z,12.05
2022-10-24T02:59:19.405Z,12.02
2022-10-24T03:01:45.775Z,12.03
2022-10-24T03:04:12.407Z,12.03
2022-10-24T03:06:38.735Z,12.01
2022-10-24T03:09:05.072Z,12.05
2022-10-24T03:11:31.578Z,12.06
2022-10-24T03:13:57.939Z,12.08
2022-10-24T03:16:24.999Z,12.06
2022-10-24T03:18:51.398Z,12.07
2022-10-24T03:21:17.752Z,12.08
2022-10-24T03:23:44.128Z,12.05
2022-10-24T03:26:10.624Z,12.09
2022-10-24T03:28:37.127Z,12.16
2022-10-24T03:31:03.828Z,12.25
2022-10-24T03:33:30.260Z,12.27
2022-10-24T03:35:56.710Z,12.24
2022-10-24T03:38:23.371Z,12.36
2022-10-24T03:40:50.460Z,12.37
2022-10-24T03:43:17.394Z,12.36
2022-10-24T03:45:43.788Z,12.38
2022-10-24T03:48:10.628Z,12.35
2022-10-24T03:50:37.090Z,12.32
2022-10-24T03:53:03.804Z,12.34
2022-10-24T03:55:30.222Z,12.42
2022-10-24T03:57:56.756Z,12.42
2022-10-24T04:00:23.707Z,12.43
2022-10-24T04:02:51.612Z,12.48
2022-10-24T04:05:18.091Z,12.43
2022-10-24T04:07:44.682Z,12.43
2022-10-24T04:10:11.488Z,12.40
2022-10-24T04:12:37.973Z,12.37
2022-10-24T04:15:05.232Z,12.34
2022-10-24T04:17:31.779Z,12.34
2022-10-24T04:19:58.307Z,12.32
2022-10-24T04:22:26.949Z,12.32
2022-10-24T04:24:53.723Z,12.34
2022-10-24T04:27:20.241Z,12.33
2022-10-24T04:29:47.573Z,12.37
2022-10-24T04:32:14.299Z,12.34
2022-10-24T04:34:40.700Z,12.34
2022-10-24T04:37:07.087Z,12.33
2022-10-24T04:39:33.597Z,12.29
2022-10-24T04:41:59.989Z,12.29
2022-10-24T04:44:26.467Z,12.29
2022-10-24T04:46:52.954Z,12.31
2022-10-24T04:49:19.790Z,12.39
2022-10-24T04:51:46.199Z,12.36
2022-10-24T04:54:12.708Z,12.34
2022-10-24T04:56:39.085Z,12.30
2022-10-24T04:59:05.733Z,12.31
2022-10-24T05:01:32.197Z,12.31
2022-10-24T05:03:58.901Z,12.29
2022-10-24T05:06:25.449Z,12.33
2022-10-24T05:08:51.889Z,12.36
2022-10-24T05:11:18.323Z,12.39
2022-10-24T05:13:44.829Z,12.41
2022-10-24T05:16:11.208Z,12.48
2022-10-24T05:18:37.700Z,12.54
2022-10-24T05:21:04.174Z,12.61
2022-10-24T05:23:30.571Z,12.74
2022-10-24T05:25:57.028Z,12.80
2022-10-24T05:28:23.430Z,12.82
2022-10-24T05:30:49.954Z,12.81
2022-10-24T05:33:16.354Z,12.80
2022-10-24T05:35:42.912Z,12.83
2022-10-24T05:38:09.443Z,12.87
2022-10-24T05:40:35.831Z,12.90
2022-10-24T05:43:02.239Z,12.98
2022-10-24T05:45:28.704Z,13.00
2022-10-24T05:47:55.084Z,13.07
2022-10-24T05:50:21.923Z,13.08
2022-10-24T05:52:48.937Z,13.09
2022-10-24T05:55:17.940Z,13.08
2022-10-24T05:57:45.905Z,13.11
2022-10-24T06:00:13.501Z,13.07
2022-10-24T06:02:40.204Z,13.07
2022-10-24T06:05:07.117Z,13.05
2022-10-24T06:07:33.661Z,13.07
2022-10-24T06:10:00.142Z,13.00
2022-10-24T06:12:26.723Z,13.04
2022-10-24T06:14:56.907Z,13.03
2022-10-24T06:17:23.486Z,13.10
2022-10-24T06:19:51.101Z,13.13
2022-10-24T06:22:18.337Z,13.14
2022-10-24T06:24:45.098Z,13.18
2022-10-24T06:27:11.933Z,13.17
2022-10-24T06:29:38.395Z,13.20
2022-10-24T06:32:04.868Z,13.22
2022-10-24T06:34:31.389Z,13.24
2022-10-24T06:36:57.776Z,13.28
2022-10-24T06:39:24.782Z,13.30
2022-10-24T06:41:51.199Z,13.34
2022-10-24T06:44:17.625Z,13.40
2022-10-24T06:46:44.198Z,13.44
2022-10-24T06:49:11.703Z,13.47
2022-10-24T06:51:39.235Z,13.50
2022-10-24T06:54:05.657Z,13.48
2022-10-24T06:56:32.200Z,13.43
2022-10-24T06:58:58.598Z,13.40
2022-10-24T07:01:26.248Z,13.34
2022-10-24T07:03:52.964Z,13.30
2022-10-24T07:06:24.088Z,13.27
2022-10-24T07:08:51.684Z,13.27
2022-10-24T07:11:18.190Z,13.31
2022-10-24T07:13:44.658Z,13.38
2022-10-24T07:16:11.169Z,13.48
2022-10-24T07:18:37.849Z,13.49
2022-10-24T07:21:05.424Z,13.59
2022-10-24T07:23:32.715Z,13.75
2022-10-24T07:26:03.584Z,13.87
2022-10-24T07:28:30.014Z,13.99
2022-10-24T07:30:56.438Z,14.08
2022-10-24T07:33:23.000Z,14.16
2022-10-24T07:35:49.424Z,14.19
2022-10-24T07:38:17.932Z,14.23
2022-10-24T07:40:45.296Z,14.25
2022-10-24T07:43:11.873Z,14.26
2022-10-24T07:45:39.134Z,14.27
2022-10-24T07:48:06.704Z,14.28
2022-10-24T07:50:33.925Z,14.31
2022-10-24T07:53:00.731Z,14.32
2022-10-24T07:55:27.270Z,14.35
2022-10-24T07:57:54.038Z,14.44
2022-10-24T08:00:20.599Z,14.54
2022-10-24T08:02:47.181Z,14.68
2022-10-24T08:05:13.657Z,14.82
2022-10-24T08:07:40.110Z,14.96
2022-10-24T08:10:09.495Z,15.08
2022-10-24T08:12:35.948Z,15.18
2022-10-24T08:15:02.894Z,15.26
2022-10-24T08:17:29.362Z,15.33
2022-10-24T08:19:55.933Z,15.39
2022-10-24T08:22:22.351Z,15.40
2022-10-24T08:24:48.837Z,15.43
2022-10-24T08:27:15.258Z,15.47
2022-10-24T08:29:41.715Z,15.51
2022-10-24T08:32:08.202Z,15.56
2022-10-24T08:34:34.669Z,15.64
2022-10-24T08:37:01.065Z,15.70
2022-10-24T08:39:27.501Z,15.75
2022-10-24T08:42:00.315Z,15.85
2022-10-24T08:44:37.789Z,15.92
2022-10-24T08:47:04.233Z,16.01
2022-10-24T08:49:41.057Z,16.08
2022-10-24T08:52:17.691Z,16.12
2022-10-24T08:54:45.814Z,16.11
2022-10-24T09:00:13.229Z,16.19
2022-10-24T09:02:44.185Z,16.20
2022-10-24T09:05:13.963Z,16.20
2022-10-24T09:07:43.362Z,16.23
2022-10-24T09:10:18.941Z,16.26
2022-10-24T09:12:45.384Z,16.33
2022-10-24T09:15:16.875Z,16.37
2022-10-24T09:17:44.008Z,16.45
2022-10-24T09:20:13.914Z,16.52
2022-10-24T09:22:43.498Z,16.61
2022-10-24T09:25:21.757Z,16.65
2022-10-24T09:27:48.622Z,16.70
2022-10-24T09:30:20.199Z,16.74
2022-10-24T09:32:46.943Z,16.75
2022-10-24T09:35:21.628Z,16.74
2022-10-24T09:37:58.863Z,16.76
2022-10-24T09:40:30.147Z,16.68
2022-10-24T09:43:16.872Z,16.63
2022-10-24T09:45:48.408Z,16.63
2022-10-24T09:48:17.946Z,16.72
2022-10-24T09:50:45.779Z,16.85
2022-10-24T09:53:24.555Z,16.98
2022-10-24T09:55:53.199Z,17.14
2022-10-24T09:58:21.260Z,17.30
2022-10-24T10:01:14.201Z,17.48
2022-10-24T10:03:40.766Z,17.63
2022-10-24T10:06:18.806Z,17.72
2022-10-24T10:08:52.486Z,17.87
2022-10-24T10:11:26.526Z,18.02
2022-10-24T10:13:55.146Z,18.15
2022-10-24T10:16:24.036Z,18.20
2022-10-24T10:18:51.517Z,18.18
2022-10-24T10:21:26.955Z,18.14
2022-10-24T10:23:55.138Z,18.13
2022-10-24T10:26:23.296Z,18.14
2022-10-24T10:28:57.466Z,18.09
2022-10-24T10:31:27.238Z,18.06
2022-10-24T10:33:56.744Z,18.06
2022-10-24T10:36:27.967Z,18.00
2022-10-24T10:39:02.589Z,17.98
2022-10-24T10:41:34.021Z,17.94
2022-10-24T10:44:19.351Z,17.97
2022-10-24T10:46:45.851Z,17.95
2022-10-24T10:49:18.161Z,17.93
2022-10-24T10:51:52.400Z,17.89
2022-10-24T10:54:30.868Z,17.89
2022-10-24T10:57:03.085Z,17.85
2022-10-24T10:59:35.304Z,17.87
2022-10-24T11:02:02.033Z,17.85
2022-10-24T11:04:47.302Z,17.81
2022-10-24T11:07:23.135Z,17.78
2022-10-24T11:09:50.918Z,17.76
2022-10-24T11:12:19.257Z,17.74
2022-10-24T11:14:49.177Z,17.72
2022-10-24T11:17:24.339Z,17.75
2022-10-24T11:19:57.167Z,17.77
2022-10-24T11:22:25.922Z,17.72
2022-10-24T11:24:55.944Z,17.73
2022-10-24T11:27:26.568Z,17.72
2022-10-24T11:30:00.707Z,17.72
2022-10-24T11:32:34.347Z,17.84
2022-10-24T11:35:05.276Z,17.79
2022-10-24T11:37:34.105Z,17.76
2022-10-24T11:40:20.837Z,17.72
2022-10-24T11:42:47.765Z,17.69
2022-10-24T11:45:17.247Z,17.68
2022-10-24T11:48:11.180Z,17.63
2022-10-24T11:50:47.388Z,17.56
2022-10-24T11:53:13.860Z,17.64
2022-10-24T11:55:47.151Z,17.64
2022-10-24T11:58:15.248Z,17.56
2022-10-24T12:00:42.137Z,17.51
2022-10-24T12:03:18.886Z,17.46
2022-10-24T12:06:04.152Z,17.41
2022-10-24T12:08:44.001Z,17.55
2022-10-24T12:11:33.423Z,17.61
2022-10-24T12:16:49.874Z,17.74
2022-10-24T12:19:17.900Z,17.69
2022-10-24T12:21:52.423Z,17.62
2022-10-24T12:24:21.730Z,17.61
2022-10-24T12:26:54.581Z,17.64
2022-10-24T12:29:24.005Z,17.68
2022-10-24T12:31:50.643Z,17.61
2022-10-24T12:34:17.037Z,17.66
2022-10-24T12:37:02.143Z,17.57
2022-10-24T12:39:29.493Z,17.49
2022-10-24T12:41:56.641Z,17.44
2022-10-24T12:44:37.259Z,17.39
2022-10-24T12:47:22.195Z,17.34
2022-10-24T12:49:51.931Z,17.27
2022-10-24T12:52:30.839Z,17.24
2022-10-24T12:54:57.862Z,17.25
2022-10-24T12:57:35.787Z,17.23
2022-10-24T13:00:02.370Z,17.21
2022-10-24T13:02:31.589Z,17.19
2022-10-24T13:05:06.964Z,17.20
2022-10-24T13:07:36.399Z,17.20
2022-10-24T13:10:26.114Z,17.17
2022-10-24T13:13:06.135Z,17.14
2022-10-24T13:15:35.638Z,17.13
2022-10-24T13:18:14.611Z,17.14
2022-10-24T13:20:43.572Z,17.13
2022-10-24T13:23:15.899Z,17.09
2022-10-24T13:25:42.929Z,17.06
2022-10-24T13:28:24.556Z,17.05
2022-10-24T13:31:00.160Z,17.03
2022-10-24T13:33:29.402Z,16.98
2022-10-24T13:36:17.641Z,17.01
2022-10-24T13:38:51.230Z,17.07
2022-10-24T13:41:21.136Z,17.08
2022-10-24T13:43:49.702Z,17.04
2022-10-24T13:46:28.160Z,16.99
2022-10-24T13:48:55.145Z,16.99
2022-10-24T13:51:29.118Z,16.93
2022-10-24T13:54:07.028Z,16.99
2022-10-24T13:56:36.828Z,17.16
2022-10-24T13:59:03.514Z,17.15
2022-10-24T14:01:31.275Z,17.10
2022-10-24T14:03:58.509Z,17.07
2022-10-24T14:06:26.073Z,17.14
2022-10-24T14:09:05.468Z,17.17
2022-10-24T14:11:33.446Z,17.37
2022-10-24T14:14:06.021Z,17.36
2022-10-24T14:16:34.132Z,17.27
2022-10-24T14:19:36.157Z,17.20
2022-10-24T14:22:03.898Z,17.16
2022-10-24T14:24:30.695Z,17.08
2022-10-24T14:26:58.791Z,16.99
2022-10-24T14:29:25.319Z,16.93
2022-10-24T14:32:14.366Z,16.85
2022-10-24T14:34:40.953Z,16.81
2022-10-24T14:37:08.775Z,16.73
2022-10-24T14:39:36.856Z,16.67
2022-10-24T14:42:03.454Z,16.60
2022-10-24T14:44:30.059Z,16.56
2022-10-24T14:47:07.104Z,16.43
2022-10-24T14:49:36.768Z,16.35
2022-10-24T14:52:10.793Z,16.30
2022-10-24T14:54:38.093Z,16.23
2022-10-24T14:57:07.444Z,16.20
2022-10-24T14:59:39.732Z,16.14
2022-10-24T15:02:15.530Z,16.09
2022-10-24T15:04:46.100Z,16.02
2022-10-24T15:07:14.337Z,15.97
2022-10-24T15:09:57.613Z,15.95
2022-10-24T15:12:30.954Z,15.95
2022-10-24T15:14:59.612Z,15.92
2022-10-24T15:17:32.978Z,15.92
2022-10-24T15:20:12.716Z,15.90
2022-10-24T15:22:39.691Z,15.82
2022-10-24T15:27:48.416Z,15.71
2022-10-24T15:30:16.113Z,15.67
2022-10-24T15:32:43.027Z,15.62
2022-10-24T15:35:09.461Z,15.63
2022-10-24T15:37:36.140Z,15.60
2022-10-24T15:40:03.960Z,15.58
2022-10-24T15:42:30.361Z,15.56
2022-10-24T15:44:56.766Z,15.51
2022-10-24T15:47:24.452Z,15.42
2022-10-24T15:49:53.866Z,15.38
2022-10-24T15:52:20.390Z,15.35
2022-10-24T15:54:46.867Z,15.33
2022-10-24T15:57:13.798Z,15.27
2022-10-24T15:59:40.324Z,15.20
2022-10-24T16:02:12.782Z,15.15
2022-10-24T16:04:40.348Z,15.08
2022-10-24T16:07:06.881Z,15.03
2022-10-24T16:09:33.298Z,15.02
2022-10-24T16:11:59.686Z,15.00
2022-10-24T16:14:26.249Z,14.97
2022-10-24T16:16:55.058Z,14.93
2022-10-24T16:19:21.752Z,14.92
2022-10-24T16:21:48.155Z,14.85
2022-10-24T16:24:14.623Z,14.79
2022-10-24T16:26:41.286Z,14.82
2022-10-24T16:29:07.732Z,14.77
2022-10-24T16:31:34.185Z,14.72
2022-10-24T16:34:00.661Z,14.69
2022-10-24T16:36:27.275Z,14.67
2022-10-24T16:38:53.733Z,14.73
2022-10-24T16:41:21.740Z,14.74
2022-10-24T16:43:49.892Z,14.69
2022-10-24T16:46:20.702Z,14.64
2022-10-24T16:48:47.411Z,14.60
2022-10-24T16:51:15.954Z,14.53
2022-10-24T16:53:42.674Z,14.47
2022-10-24T16:56:10.295Z,14.38
2022-10-24T16:58:37.103Z,14.32
2022-10-24T17:01:05.003Z,14.25
2022-10-24T17:03:31.573Z,14.20
2022-10-24T17:05:58.038Z,14.14
2022-10-24T17:08:24.626Z,14.11
2022-10-24T17:10:51.078Z,14.07
2022-10-24T17:13:17.616Z,14.01
2022-10-24T17:15:44.026Z,13.93
2022-10-24T17:18:10.477Z,13.86
2022-10-24T17:20:36.886Z,13.80
2022-10-24T17:23:05.769Z,13.73
2022-10-24T17:25:33.056Z,13.67
2022-10-24T17:27:59.544Z,13.62
2022-10-24T17:30:26.930Z,13.58
2022-10-24T17:32:53.688Z,13.52
2022-10-24T17:35:21.372Z,13.46
2022-10-24T17:38:06.269Z,13.41
2022-10-24T17:40:52.882Z,13.32
2022-10-24T17:43:23.735Z,13.25
2022-10-24T17:45:50.497Z,13.19
2022-10-24T17:48:17.142Z,13.14
2022-10-24T17:50:43.650Z,13.11
2022-10-24T17:53:17.673Z,13.07
2022-10-24T17:55:46.788Z,13.09
2022-10-24T17:58:14.198Z,13.10
2022-10-24T18:00:40.679Z,13.14
2022-10-24T18:03:08.741Z,13.16
2022-10-24T18:05:38.074Z,13.18
2022-10-24T18:08:06.023Z,13.15
2022-10-24T18:10:32.492Z,13.16
2022-10-24T18:15:25.257Z,13.11
2022-10-24T18:17:51.678Z,13.08
2022-10-24T18:20:19.084Z,13.07
2022-10-24T18:22:45.957Z,13.06
2022-10-24T18:25:13.525Z,13.07
2022-10-24T18:27:41.309Z,13.03
2022-10-24T18:30:08.461Z,13.02
2022-10-24T18:32:35.155Z,12.98
2022-10-24T18:35:01.573Z,12.94
2022-10-24T18:37:28.089Z,12.89
2022-10-24T18:39:54.887Z,12.87
2022-10-24T18:42:25.097Z,12.83
2022-10-24T18:44:52.050Z,12.79
2022-10-24T18:47:21.979Z,12.75
2022-10-24T18:49:51.488Z,12.70
2022-10-24T18:52:17.979Z,12.67
2022-10-24T18:55:03.978Z,12.64
2022-10-24T18:57:31.816Z,12.59
2022-10-24T18:59:59.759Z,12.57
2022-10-24T19:02:29.350Z,12.53
2022-10-24T19:05:05.074Z,12.52
2022-10-24T19:07:31.564Z,12.51
2022-10-24T19:09:58.053Z,12.50
2022-10-24T19:12:24.550Z,12.50
2022-10-24T19:14:51.079Z,12.53
2022-10-24T19:17:17.564Z,12.57
2022-10-24T19:19:44.044Z,12.56
2022-10-24T19:22:10.599Z,12.57
2022-10-24T19:24:37.087Z,12.55
2022-10-24T19:27:03.516Z,12.53
2022-10-24T19:29:29.936Z,12.49
2022-10-24T19:31:56.500Z,12.42
2022-10-24T19:34:22.942Z,12.42
2022-10-24T19:36:50.029Z,12.35
2022-10-24T19:39:16.429Z,12.33
2022-10-24T19:41:42.807Z,12.27
2022-10-24T19:44:09.227Z,12.25
2022-10-24T19:46:35.571Z,12.20
2022-10-24T19:49:01.982Z,12.15
2022-10-24T19:51:28.619Z,12.11
2022-10-24T19:53:57.079Z,12.07
2022-10-24T19:56:26.169Z,12.04
2022-10-24T19:58:53.141Z,12.03
2022-10-24T20:01:21.449Z,12.04
2022-10-24T20:03:48.773Z,12.02
2022-10-24T20:06:15.521Z,11.99
2022-10-24T20:08:41.954Z,11.94
2022-10-24T20:11:08.650Z,11.93
2022-10-24T20:13:35.112Z,11.90
2022-10-24T20:16:03.942Z,11.89
2022-10-24T20:18:31.063Z,11.91
2022-10-24T20:20:57.781Z,11.91
2022-10-24T20:23:24.768Z,11.92
2022-10-24T20:26:20.496Z,12.01
2022-10-24T20:28:48.423Z,12.02
2022-10-24T20:31:25.597Z,12.03
2022-10-24T20:33:52.251Z,12.13
2022-10-24T20:36:20.787Z,12.25
2022-10-24T20:38:47.222Z,12.28
2022-10-24T20:41:13.714Z,12.29
2022-10-24T20:43:40.174Z,12.29
2022-10-24T20:46:06.638Z,12.26
2022-10-24T20:48:33.541Z,12.30
2022-10-24T20:51:11.136Z,12.29
2022-10-24T20:53:37.733Z,12.33
2022-10-24T20:56:08.331Z,12.33
2022-10-24T20:58:38.626Z,12.37
2022-10-24T21:01:09.203Z,12.35
2022-10-24T21:03:36.403Z,12.33
2022-10-24T21:06:03.317Z,12.34
2022-10-24T21:08:29.994Z,12.30
2022-10-24T21:10:56.374Z,12.26
2022-10-24T21:13:22.790Z,12.25
2022-10-24T21:15:54.571Z,12.22
2022-10-24T21:18:20.916Z,12.20
2022-10-24T21:20:47.285Z,12.20
2022-10-24T21:23:13.711Z,12.18
2022-10-24T21:25:40.075Z,12.14
2022-10-24T21:28:06.447Z,12.10
2022-10-24T21:30:33.647Z,12.09
2022-10-24T21:33:00.083Z,12.09
2022-10-24T21:35:26.597Z,12.23
2022-10-24T21:37:53.714Z,12.30
2022-10-24T21:40:20.073Z,12.32
2022-10-24T21:42:46.837Z,12.26
2022-10-24T21:45:13.431Z,12.32
2022-10-24T21:47:39.847Z,12.30
2022-10-24T21:50:06.419Z,12.33
2022-10-24T21:52:33.253Z,12.32
2022-10-24T21:54:59.663Z,12.24
2022-10-24T21:57:27.835Z,12.13
2022-10-24T21:59:54.209Z,11.94
2022-10-24T22:02:20.953Z,12.01
2022-10-24T22:04:47.484Z,11.88
2022-10-24T22:07:13.886Z,11.88
2022-10-24T22:09:40.358Z,11.90
2022-10-24T22:12:06.810Z,11.86
2022-10-24T22:14:33.322Z,11.87
2022-10-24T22:16:59.799Z,11.82
2022-10-24T22:19:26.251Z,11.81
2022-10-24T22:21:52.669Z,11.85
2022-10-24T22:24:20.595Z,11.85
2022-10-24T22:26:47.673Z,11.78
2022-10-24T22:29:15.621Z,11.75
2022-10-24T22:31:42.307Z,11.73
2022-10-24T22:34:11.094Z,11.69
2022-10-24T22:36:43.891Z,11.66
2022-10-24T22:39:17.900Z,11.58
2022-10-24T22:41:45.059Z,11.54
2022-10-24T22:44:12.855Z,11.50
2022-10-24T22:46:42.304Z,11.44
2022-10-24T22:49:14.789Z,11.43
2022-10-24T22:51:41.391Z,11.39
2022-10-24T22:54:13.966Z,11.39
2022-10-24T22:56:40.605Z,11.44
2022-10-24T22:59:07.196Z,11.40
2022-10-24T23:01:58.274Z,11.37
2022-10-24T23:04:35.565Z,11.34
2022-10-24T23:07:07.292Z,11.32
2022-10-24T23:09:33.702Z,11.26
2022-10-24T23:12:00.460Z,11.31
2022-10-24T23:14:27.063Z,11.33
2022-10-24T23:16:56.923Z,11.30
2022-10-24T23:19:29.806Z,11.20
2022-10-24T23:21:58.084Z,11.14
2022-10-24T23:24:24.942Z,11.12
2022-10-24T23:27:09.777Z,11.08
2022-10-24T23:29:36.349Z,11.10
2022-10-24T23:32:03.662Z,11.05
2022-10-24T23:34:30.693Z,11.01
2022-10-24T23:37:00.092Z,11.02
2022-10-24T23:39:31.849Z,11.01
2022-10-24T23:41:58.443Z,11.17
2022-10-24T23:44:25.075Z,11.17
2022-10-24T23:46:57.143Z,11.18
2022-10-24T23:49:36.264Z,11.20
2022-10-24T23:52:02.667Z,11.11
2022-10-24T23:54:31.082Z,11.06
2022-10-24T23:56:57.934Z,11.07
2022-10-24T23:59:24.405Z,11.17
